Midway, Missouri
Current Conditions -  °F | °C
As of 4:54 PM on Friday 31 Oct 2014 (Local Time) from KCOU Reporting Station
Clear Clear  
Wind Chill: 39°   Ceiling: Unl
Heat Index: 45°   Visibility: 10mi
Dew Point: 16°   Wind: 12mph
Humidity: 31%   Direction: 350°N
Pressure: 30.37"   Gusts: 24mph
Location:  39.0235°N, 92.2896°W
Report Text: KCOU 312154Z 35010G21KT 10SM CLR 07/M09 A3037 RMK AO2 SLP288 T00721089
Loading
Personal Weather Stations






























Interactive Weather Map
Tropical Storm Tracking
New forecast layout! Learn more

10-Day Weather Forecast

Advertisements
Track Severe Weather on mobile